createdAt,value
2018-02-04T00:01:26.773Z,81.70
2018-02-04T00:03:53.167Z,81.70
2018-02-04T00:06:19.550Z,81.80
2018-02-04T00:08:45.911Z,82.00
2018-02-04T00:11:12.286Z,81.70
2018-02-04T00:13:39.429Z,81.60
2018-02-04T00:16:05.834Z,81.60
2018-02-04T00:18:32.233Z,81.80
2018-02-04T00:20:58.661Z,81.60
2018-02-04T00:23:25.038Z,81.30
2018-02-04T00:25:51.443Z,81.20
2018-02-04T00:28:17.840Z,81.40
2018-02-04T00:30:44.244Z,81.40
2018-02-04T00:33:10.633Z,81.30
2018-02-04T00:35:37.002Z,81.60
2018-02-04T00:38:03.446Z,81.80
2018-02-04T00:40:30.650Z,81.70
2018-02-04T00:42:57.023Z,81.70
2018-02-04T00:45:23.406Z,81.60
2018-02-04T00:47:49.833Z,81.30
2018-02-04T00:50:16.225Z,81.30
2018-02-04T00:52:43.437Z,81.30
2018-02-04T00:55:09.833Z,81.30
2018-02-04T00:57:36.954Z,81.30
2018-02-04T01:00:03.585Z,81.30
2018-02-04T01:02:29.990Z,81.70
2018-02-04T01:04:56.386Z,82.30
2018-02-04T01:07:22.764Z,82.50
2018-02-04T01:09:49.157Z,82.50
2018-02-04T01:12:15.541Z,82.70
2018-02-04T01:14:41.909Z,82.50
2018-02-04T01:17:09.039Z,82.50
2018-02-04T01:19:36.198Z,82.70
2018-02-04T01:22:03.326Z,82.90
2018-02-04T01:24:29.709Z,82.70
2018-02-04T01:26:56.086Z,82.60
2018-02-04T01:29:23.942Z,83.20
2018-02-04T01:31:50.328Z,83.20
2018-02-04T01:34:17.566Z,83.30
2018-02-04T01:36:44.747Z,84.30
2018-02-04T01:39:11.165Z,84.30
2018-02-04T01:41:37.551Z,84.20
2018-02-04T01:44:03.968Z,83.60
2018-02-04T01:46:30.416Z,83.30
2018-02-04T01:48:56.811Z,82.90
2018-02-04T01:51:23.213Z,82.90
2018-02-04T01:53:49.646Z,83.00
2018-02-04T01:56:16.029Z,83.10
2018-02-04T01:58:42.408Z,83.20
2018-02-04T02:01:08.785Z,84.60
2018-02-04T02:03:35.160Z,84.00
2018-02-04T02:06:02.265Z,83.50
2018-02-04T02:08:28.659Z,83.40
2018-02-04T02:10:55.050Z,83.70
2018-02-04T02:13:21.438Z,83.70
2018-02-04T02:15:47.829Z,84.10
2018-02-04T02:18:14.938Z,85.20
2018-02-04T02:20:41.327Z,85.20
2018-02-04T02:23:08.445Z,85.00
2018-02-04T02:25:35.578Z,84.80
2018-02-04T02:28:01.987Z,84.60
2018-02-04T02:30:28.369Z,84.40
2018-02-04T02:32:54.789Z,84.20
2018-02-04T02:35:21.164Z,84.60
2018-02-04T02:37:47.552Z,83.90
2018-02-04T02:40:15.461Z,83.60
2018-02-04T02:42:41.875Z,83.60
2018-02-04T02:45:08.996Z,84.30
2018-02-04T02:47:35.380Z,84.30
2018-02-04T02:50:01.772Z,85.00
2018-02-04T02:52:28.182Z,85.00
2018-02-04T02:54:54.534Z,84.70
2018-02-04T02:57:20.906Z,84.50
2018-02-04T02:59:47.309Z,84.90
2018-02-04T03:02:14.813Z,85.80
2018-02-04T03:04:41.248Z,85.80
2018-02-04T03:07:07.631Z,85.40
2018-02-04T03:09:34.760Z,85.00
2018-02-04T03:12:01.146Z,84.90
2018-02-04T03:14:27.542Z,85.00
2018-02-04T03:16:54.671Z,84.50
2018-02-04T03:19:21.075Z,84.50
2018-02-04T03:21:47.530Z,84.60
2018-02-04T03:24:13.968Z,84.40
2018-02-04T03:26:41.852Z,84.40
2018-02-04T03:29:08.219Z,84.30
2018-02-04T03:31:34.586Z,84.50
2018-02-04T03:34:00.945Z,84.10
2018-02-04T03:36:27.297Z,84.00
2018-02-04T03:38:54.418Z,84.30
2018-02-04T03:41:20.799Z,84.30
2018-02-04T03:43:47.166Z,84.50
2018-02-04T03:46:13.549Z,85.00
2018-02-04T03:48:39.919Z,84.70
2018-02-04T03:51:06.363Z,84.30
2018-02-04T03:53:32.791Z,84.30
2018-02-04T03:55:59.199Z,84.10
2018-02-04T03:58:25.585Z,84.50
2018-02-04T04:00:52.700Z,84.80
2018-02-04T04:03:19.106Z,84.80
2018-02-04T04:05:45.468Z,85.10
2018-02-04T04:08:11.978Z,85.40
2018-02-04T04:10:38.413Z,85.60
2018-02-04T04:13:04.801Z,84.90
2018-02-04T04:15:31.913Z,84.70
2018-02-04T04:17:59.085Z,84.80
2018-02-04T04:20:25.472Z,84.70
2018-02-04T04:22:51.845Z,84.80
2018-02-04T04:25:18.282Z,84.50
2018-02-04T04:27:45.403Z,83.70
2018-02-04T04:30:11.789Z,83.60
2018-02-04T04:32:38.158Z,83.50
2018-02-04T04:35:04.544Z,83.20
2018-02-04T04:37:31.670Z,82.70
2018-02-04T04:39:58.057Z,82.70
2018-02-04T04:42:24.443Z,82.30
2018-02-04T04:44:51.558Z,81.00
2018-02-04T04:47:17.950Z,80.90
2018-02-04T04:49:44.339Z,80.30
2018-02-04T04:52:10.779Z,79.70
2018-02-04T04:54:37.198Z,79.30
2018-02-04T04:57:03.647Z,78.80
2018-02-04T04:59:30.048Z,78.10
2018-02-04T05:01:56.423Z,78.10
2018-02-04T05:04:23.533Z,77.40
2018-02-04T05:06:49.926Z,77.40
2018-02-04T05:09:16.399Z,77.60
2018-02-04T05:11:42.809Z,77.60
2018-02-04T05:14:09.171Z,77.30
2018-02-04T05:16:35.552Z,76.70
2018-02-04T05:19:01.934Z,76.50
2018-02-04T05:21:28.306Z,76.50
2018-02-04T05:23:55.440Z,76.60
2018-02-04T05:26:22.599Z,76.20
2018-02-04T05:28:49.734Z,75.70
2018-02-04T05:31:16.154Z,75.80
2018-02-04T05:33:42.551Z,75.70
2018-02-04T05:36:08.936Z,75.90
2018-02-04T05:38:36.071Z,76.70
2018-02-04T05:41:02.438Z,76.60
2018-02-04T05:43:29.548Z,77.70
2018-02-04T05:45:55.944Z,77.60
2018-02-04T05:48:22.365Z,78.20
2018-02-04T05:50:48.858Z,78.90
2018-02-04T05:53:15.222Z,79.00
2018-02-04T05:55:41.599Z,79.10
2018-02-04T05:58:08.086Z,78.70
2018-02-04T06:00:34.563Z,78.10
2018-02-04T06:03:00.928Z,77.90
2018-02-04T06:05:28.054Z,76.80
2018-02-04T06:07:54.446Z,76.80
2018-02-04T06:10:20.891Z,77.80
2018-02-04T06:12:47.296Z,77.70
2018-02-04T06:15:13.714Z,77.50
2018-02-04T06:17:40.830Z,78.70
2018-02-04T06:20:07.230Z,78.70
2018-02-04T06:22:33.654Z,78.50
2018-02-04T06:25:00.098Z,78.90
2018-02-04T06:27:26.526Z,79.10
2018-02-04T06:29:52.941Z,79.80
2018-02-04T06:32:19.369Z,79.40
2018-02-04T06:34:45.791Z,79.60
2018-02-04T06:37:12.916Z,80.60
2018-02-04T06:39:39.285Z,81.20
2018-02-04T06:42:05.714Z,80.30
2018-02-04T06:44:32.107Z,80.20
2018-02-04T06:46:58.516Z,80.60
2018-02-04T06:49:24.907Z,80.60
2018-02-04T06:51:52.034Z,80.30
2018-02-04T06:54:19.210Z,80.40
2018-02-04T06:56:45.656Z,80.40
2018-02-04T06:59:12.046Z,80.30
2018-02-04T07:01:39.909Z,80.20
2018-02-04T07:04:06.314Z,80.20
2018-02-04T07:06:32.704Z,80.70
2018-02-04T07:08:59.849Z,79.10
2018-02-04T07:11:26.302Z,79.10
2018-02-04T07:13:52.693Z,79.20
2018-02-04T07:16:19.064Z,78.50
2018-02-04T07:18:45.477Z,77.40
2018-02-04T07:21:12.604Z,75.60
2018-02-04T07:23:39.017Z,75.60
2018-02-04T07:26:05.499Z,74.50
2018-02-04T07:28:31.895Z,74.60
2018-02-04T07:30:58.334Z,74.60
2018-02-04T07:33:25.448Z,76.90
2018-02-04T07:35:51.825Z,76.30
2018-02-04T07:38:18.933Z,76.80
2018-02-04T07:40:45.461Z,76.80
2018-02-04T07:43:11.863Z,77.90
2018-02-04T07:45:38.236Z,78.30
2018-02-04T07:48:04.649Z,78.80
2018-02-04T07:50:31.055Z,79.20
2018-02-04T07:52:57.458Z,79.30
2018-02-04T07:55:23.849Z,79.60
2018-02-04T07:57:50.288Z,80.30
2018-02-04T08:00:16.680Z,81.20
2018-02-04T08:02:43.814Z,81.50
2018-02-04T08:05:10.981Z,81.60
2018-02-04T08:07:37.952Z,81.50
2018-02-04T08:10:04.331Z,82.00
2018-02-04T08:12:30.706Z,82.30
2018-02-04T08:14:57.120Z,82.80
2018-02-04T08:17:23.540Z,82.90
2018-02-04T08:19:50.721Z,83.30
2018-02-04T08:22:17.087Z,83.30
2018-02-04T08:24:43.470Z,83.40
2018-02-04T08:27:09.898Z,83.50
2018-02-04T08:29:36.296Z,83.70
2018-02-04T08:32:02.690Z,84.30
2018-02-04T08:34:29.070Z,84.60
2018-02-04T08:36:55.464Z,84.90
2018-02-04T08:39:21.849Z,85.30
2018-02-04T08:41:48.964Z,85.40
2018-02-04T08:44:15.409Z,84.90
2018-02-04T08:46:41.841Z,85.60
2018-02-04T08:49:08.166Z,85.70
2018-02-04T08:51:34.565Z,84.70
2018-02-04T08:54:01.012Z,85.70
2018-02-04T08:56:27.409Z,85.30
2018-02-04T08:58:53.801Z,84.80
2018-02-04T09:01:21.684Z,84.00
2018-02-04T09:03:48.829Z,83.90
2018-02-04T09:06:15.250Z,83.80
2018-02-04T09:08:41.706Z,83.90
2018-02-04T09:11:08.846Z,83.60
2018-02-04T09:13:35.230Z,83.50
2018-02-04T09:16:01.741Z,83.20
2018-02-04T09:18:28.136Z,82.80
2018-02-04T09:20:54.521Z,82.90
2018-02-04T09:23:20.910Z,82.70
2018-02-04T09:25:48.090Z,83.30
2018-02-04T09:28:14.463Z,83.30
2018-02-04T09:30:40.841Z,83.30
2018-02-04T09:33:07.257Z,83.60
2018-02-04T09:35:34.367Z,83.50
2018-02-04T09:38:00.796Z,83.50
2018-02-04T09:40:27.173Z,83.20
2018-02-04T09:42:54.322Z,83.70
2018-02-04T09:45:21.509Z,83.50
2018-02-04T09:47:47.922Z,83.50
2018-02-04T09:50:15.099Z,83.80
2018-02-04T09:52:41.903Z,83.80
2018-02-04T09:55:09.162Z,83.30
2018-02-04T09:57:35.590Z,83.20
2018-02-04T10:00:02.065Z,83.20
2018-02-04T10:02:28.425Z,84.30
2018-02-04T10:04:54.802Z,85.20
2018-02-04T10:07:21.250Z,85.30
2018-02-04T10:09:47.699Z,84.80
2018-02-04T10:12:14.058Z,84.40
2018-02-04T10:14:40.478Z,84.60
2018-02-04T10:17:06.858Z,85.40
2018-02-04T10:19:33.288Z,85.20
2018-02-04T10:21:59.775Z,84.50
2018-02-04T10:24:26.185Z,84.20
2018-02-04T10:26:52.619Z,84.40
2018-02-04T10:29:19.057Z,84.50
2018-02-04T10:31:45.498Z,83.80
2018-02-04T10:34:11.948Z,83.60
2018-02-04T10:36:38.388Z,83.40
2018-02-04T10:39:05.575Z,82.70
2018-02-04T10:41:32.012Z,82.70
2018-02-04T10:43:58.435Z,81.80
2018-02-04T10:46:24.881Z,80.90
2018-02-04T10:48:51.351Z,78.60
2018-02-04T10:51:23.727Z,78.90
2018-02-04T10:53:50.167Z,78.10
2018-02-04T10:56:16.591Z,77.40
2018-02-04T10:58:43.065Z,78.40
2018-02-04T11:01:10.255Z,77.60
2018-02-04T11:03:36.699Z,77.70
2018-02-04T11:06:03.136Z,77.20
2018-02-04T11:08:29.579Z,74.40
2018-02-04T11:10:57.019Z,74.20
2018-02-04T11:13:23.487Z,74.20
2018-02-04T11:15:50.653Z,71.80
2018-02-04T11:18:17.094Z,71.80
2018-02-04T11:20:43.498Z,73.40
2018-02-04T11:23:09.886Z,74.70
2018-02-04T11:25:36.266Z,71.60
2018-02-04T11:28:03.418Z,71.30
2018-02-04T11:30:30.559Z,72.00
2018-02-04T11:32:56.955Z,72.00
2018-02-04T11:35:23.345Z,73.50
2018-02-04T11:37:50.470Z,72.90
2018-02-04T11:40:16.863Z,72.90
2018-02-04T11:42:43.280Z,73.10
2018-02-04T11:45:09.712Z,73.00
2018-02-04T11:47:36.141Z,72.10
2018-02-04T11:50:02.600Z,72.60
2018-02-04T11:52:29.062Z,72.50
2018-02-04T11:54:55.533Z,71.60
2018-02-04T11:57:22.079Z,72.60
2018-02-04T11:59:48.556Z,72.10
2018-02-04T12:02:14.962Z,72.20
2018-02-04T12:04:41.342Z,72.90
2018-02-04T12:07:07.758Z,72.10
2018-02-04T12:09:34.914Z,71.50
2018-02-04T12:12:01.294Z,71.50
2018-02-04T12:14:27.661Z,71.10
2018-02-04T12:16:54.151Z,71.70
2018-02-04T12:19:20.635Z,71.90
2018-02-04T12:21:47.072Z,73.20
2018-02-04T12:24:13.531Z,71.30
2018-02-04T12:26:40.699Z,70.10
2018-02-04T12:29:07.100Z,70.10
2018-02-04T12:31:34.236Z,69.50
2018-02-04T12:34:00.616Z,69.40
2018-02-04T12:36:26.993Z,69.30
2018-02-04T12:38:53.426Z,69.20
2018-02-04T12:41:19.856Z,68.10
2018-02-04T12:43:46.270Z,68.10
2018-02-04T12:46:12.637Z,64.70
2018-02-04T12:48:39.076Z,66.00
2018-02-04T12:51:06.293Z,63.60
2018-02-04T12:53:32.748Z,63.50
2018-02-04T12:55:59.224Z,62.70
2018-02-04T12:58:25.663Z,60.80
2018-02-04T13:00:52.080Z,63.00
2018-02-04T13:03:20.186Z,63.00
2018-02-04T13:05:46.656Z,63.10
2018-02-04T13:08:13.032Z,62.60
2018-02-04T13:10:39.421Z,64.50
2018-02-04T13:13:05.815Z,64.20
2018-02-04T13:15:32.268Z,63.20
2018-02-04T13:17:58.681Z,64.90
2018-02-04T13:20:25.060Z,61.80
2018-02-04T13:22:52.202Z,60.30
2018-02-04T13:25:18.640Z,60.30
2018-02-04T13:27:45.812Z,61.80
2018-02-04T13:30:13.002Z,60.00
2018-02-04T13:32:39.404Z,60.00
2018-02-04T13:35:05.872Z,59.90
2018-02-04T13:37:32.300Z,60.20
2018-02-04T13:39:58.798Z,57.00
2018-02-04T13:42:25.278Z,57.90
2018-02-04T13:44:51.688Z,58.40
2018-02-04T13:47:18.078Z,56.20
2018-02-04T13:49:45.226Z,56.50
2018-02-04T13:52:11.635Z,56.50
2018-02-04T13:54:38.080Z,58.00
2018-02-04T13:57:04.475Z,59.00
2018-02-04T13:59:30.846Z,60.90
2018-02-04T14:01:57.241Z,63.40
2018-02-04T14:04:23.647Z,65.60
2018-02-04T14:06:50.041Z,65.70
2018-02-04T14:09:16.419Z,66.60
2018-02-04T14:11:42.809Z,68.10
2018-02-04T14:14:09.182Z,67.70
2018-02-04T14:16:35.579Z,68.10
2018-02-04T14:19:01.978Z,68.70
2018-02-04T14:21:29.116Z,69.50
2018-02-04T14:23:55.558Z,69.30
2018-02-04T14:26:21.949Z,68.90
2018-02-04T14:28:48.317Z,70.00
2018-02-04T14:31:14.719Z,70.30
2018-02-04T14:33:41.153Z,70.50
2018-02-04T14:36:07.586Z,69.90
2018-02-04T14:38:33.950Z,69.80
2018-02-04T14:41:00.395Z,69.40
2018-02-04T14:43:26.770Z,70.20
2018-02-04T14:45:53.162Z,70.60
2018-02-04T14:48:19.554Z,70.30
2018-02-04T14:50:45.939Z,70.50
2018-02-04T14:53:13.090Z,70.70
2018-02-04T14:55:39.462Z,70.60
2018-02-04T14:58:05.850Z,70.50
2018-02-04T15:00:32.259Z,71.20
2018-02-04T15:02:58.628Z,71.30
2018-02-04T15:05:25.802Z,70.50
2018-02-04T15:07:52.202Z,70.30
2018-02-04T15:10:18.594Z,70.20
2018-02-04T15:12:44.994Z,69.60
2018-02-04T15:15:11.398Z,69.50
2018-02-04T15:17:38.531Z,68.10
2018-02-04T15:20:04.938Z,68.00
2018-02-04T15:22:31.355Z,66.70
2018-02-04T15:24:57.742Z,67.10
2018-02-04T15:27:24.138Z,67.20
2018-02-04T15:29:50.661Z,67.80
2018-02-04T15:32:17.075Z,68.70
2018-02-04T15:34:43.463Z,69.40
2018-02-04T15:37:11.416Z,68.70
2018-02-04T15:39:37.782Z,68.70
2018-02-04T15:42:05.167Z,69.80
2018-02-04T15:44:31.571Z,69.80
2018-02-04T15:46:58.706Z,69.40
2018-02-04T15:49:25.099Z,69.30
2018-02-04T15:51:51.494Z,70.00
2018-02-04T15:54:18.610Z,70.70
2018-02-04T15:56:44.990Z,70.70
2018-02-04T15:59:11.383Z,70.90
2018-02-04T16:01:37.778Z,71.10
2018-02-04T16:04:04.158Z,71.20
2018-02-04T16:06:30.522Z,71.20
2018-02-04T16:08:56.894Z,71.90
2018-02-04T16:11:23.268Z,71.30
2018-02-04T16:13:50.579Z,71.30
2018-02-04T16:16:16.968Z,71.30
2018-02-04T16:18:43.353Z,71.10
2018-02-04T16:21:10.687Z,71.30
2018-02-04T16:23:37.079Z,72.60
2018-02-04T16:26:03.513Z,74.00
2018-02-04T16:28:29.976Z,75.00
2018-02-04T16:30:56.462Z,75.90
2018-02-04T16:33:23.637Z,76.10
2018-02-04T16:35:50.088Z,76.10
2018-02-04T16:38:16.499Z,75.20
2018-02-04T16:40:42.932Z,75.00
2018-02-04T16:43:09.331Z,74.70
2018-02-04T16:45:35.787Z,75.40
2018-02-04T16:48:02.986Z,75.20
2018-02-04T16:50:29.399Z,75.00
2018-02-04T16:52:55.780Z,74.80
2018-02-04T16:55:22.186Z,75.20
2018-02-04T16:57:48.582Z,76.60
2018-02-04T17:00:15.003Z,76.80
2018-02-04T17:02:41.457Z,76.90
2018-02-04T17:05:07.850Z,77.80
2018-02-04T17:07:34.988Z,77.90
2018-02-04T17:10:01.370Z,77.80
2018-02-04T17:12:27.758Z,77.60
2018-02-04T17:14:54.911Z,78.60
2018-02-04T17:17:22.044Z,79.20
2018-02-04T17:19:49.203Z,79.20
2018-02-04T17:22:16.331Z,79.40
2018-02-04T17:24:42.734Z,79.40
2018-02-04T17:27:09.143Z,79.10
2018-02-04T17:29:35.512Z,79.10
2018-02-04T17:32:01.918Z,79.30
2018-02-04T17:34:28.408Z,80.10
2018-02-04T17:36:55.554Z,80.10
2018-02-04T17:39:22.004Z,80.60
2018-02-04T17:41:49.195Z,81.30
2018-02-04T17:44:15.630Z,81.20
2018-02-04T17:46:42.038Z,81.70
2018-02-04T17:49:21.973Z,81.60
2018-02-04T17:51:49.183Z,82.20
2018-02-04T17:54:29.118Z,82.20
2018-02-04T17:56:55.558Z,82.70
2018-02-04T17:59:22.047Z,83.00
2018-02-04T18:01:48.483Z,84.40
2018-02-04T18:04:14.957Z,83.40
2018-02-04T18:06:41.321Z,83.40
2018-02-04T18:09:07.712Z,84.30
2018-02-04T18:11:34.096Z,84.30
2018-02-04T18:14:01.267Z,84.10
2018-02-04T18:16:27.667Z,84.10
2018-02-04T18:18:54.063Z,84.10
2018-02-04T18:21:20.487Z,83.60
2018-02-04T18:23:46.924Z,83.40
2018-02-04T18:26:13.330Z,83.70
2018-02-04T18:28:39.802Z,83.90
2018-02-04T18:31:06.179Z,83.80
2018-02-04T18:33:33.346Z,83.20
2018-02-04T18:35:59.733Z,83.10
2018-02-04T18:38:26.174Z,83.60
2018-02-04T18:40:52.629Z,83.60
2018-02-04T18:43:19.027Z,84.00
2018-02-04T18:45:45.406Z,83.40
2018-02-04T18:48:12.561Z,84.90
2018-02-04T18:50:39.014Z,84.80
2018-02-04T18:53:05.426Z,84.70
2018-02-04T18:55:31.811Z,84.00
2018-02-04T18:57:59.687Z,84.30
2018-02-04T19:00:26.107Z,84.30
2018-02-04T19:02:53.237Z,83.90
2018-02-04T19:05:19.635Z,83.90
2018-02-04T19:07:46.056Z,83.60
2018-02-04T19:10:13.178Z,84.30
2018-02-04T19:12:39.558Z,83.70
2018-02-04T19:15:06.034Z,84.60
2018-02-04T19:17:32.417Z,84.60
2018-02-04T19:19:59.638Z,84.90
2018-02-04T19:22:26.842Z,85.20
2018-02-04T19:24:53.214Z,85.00
2018-02-04T19:27:19.673Z,85.10
2018-02-04T19:29:46.056Z,85.40
2018-02-04T19:32:12.490Z,85.60
2018-02-04T19:34:38.896Z,85.40
2018-02-04T19:37:05.887Z,84.70
2018-02-04T19:39:32.268Z,85.10
2018-02-04T19:41:58.676Z,84.80
2018-02-04T19:44:27.057Z,85.10
2018-02-04T19:46:55.071Z,86.60
2018-02-04T19:49:21.483Z,86.00
2018-02-04T19:51:47.935Z,85.80
2018-02-04T19:54:14.437Z,85.50
2018-02-04T19:56:40.829Z,85.70
2018-02-04T19:59:07.222Z,85.90
2018-02-04T20:01:33.781Z,85.90
2018-02-04T20:04:01.674Z,84.40
2018-02-04T20:06:28.057Z,84.40
2018-02-04T20:08:54.447Z,84.40
2018-02-04T20:11:21.586Z,85.70
2018-02-04T20:13:47.963Z,85.70
2018-02-04T20:16:14.346Z,86.10
2018-02-04T20:18:40.783Z,86.30
2018-02-04T20:21:07.780Z,86.00
2018-02-04T20:23:34.265Z,85.80
2018-02-04T20:26:01.409Z,86.60
2018-02-04T20:28:28.551Z,86.20
2018-02-04T20:30:54.964Z,86.70
2018-02-04T20:33:21.404Z,86.60
2018-02-04T20:35:47.806Z,86.60
2018-02-04T20:38:14.274Z,86.20
2018-02-04T20:40:40.674Z,85.60
2018-02-04T20:43:07.055Z,85.00
2018-02-04T20:45:33.430Z,84.90
2018-02-04T20:47:59.844Z,84.70
2018-02-04T20:50:26.255Z,85.20
2018-02-04T20:52:53.397Z,85.50
2018-02-04T20:55:20.583Z,85.40
2018-02-04T20:57:46.983Z,84.70
2018-02-04T21:00:13.469Z,84.50
2018-02-04T21:02:39.879Z,84.70
2018-02-04T21:05:06.290Z,84.30
2018-02-04T21:07:33.403Z,85.60
2018-02-04T21:09:59.790Z,85.70
2018-02-04T21:12:26.187Z,85.20
2018-02-04T21:14:52.566Z,85.10
2018-02-04T21:17:18.959Z,85.30
2018-02-04T21:19:46.091Z,86.00
2018-02-04T21:22:12.503Z,86.60
2018-02-04T21:24:38.913Z,86.40
2018-02-04T21:27:05.296Z,86.40
2018-02-04T21:29:32.442Z,85.10
2018-02-04T21:31:58.838Z,85.00
2018-02-04T21:34:25.227Z,85.20
2018-02-04T21:36:51.653Z,84.70
2018-02-04T21:39:18.775Z,84.80
2018-02-04T21:41:45.138Z,84.80
2018-02-04T21:44:12.243Z,85.20
2018-02-04T21:46:38.609Z,85.10
2018-02-04T21:49:05.011Z,84.50
2018-02-04T21:51:31.422Z,84.40
2018-02-04T21:53:57.822Z,84.50
2018-02-04T21:56:24.385Z,84.30
2018-02-04T21:58:50.759Z,84.30
2018-02-04T22:01:17.144Z,84.40
2018-02-04T22:03:43.502Z,85.10
2018-02-04T22:06:09.865Z,85.80
2018-02-04T22:08:36.242Z,85.30
2018-02-04T22:11:02.621Z,84.90
2018-02-04T22:13:28.994Z,86.10
2018-02-04T22:15:55.378Z,87.00
2018-02-04T22:18:21.757Z,87.10
2018-02-04T22:20:48.142Z,87.40
2018-02-04T22:23:14.531Z,86.80
2018-02-04T22:25:40.919Z,86.60
2018-02-04T22:28:07.307Z,85.00
2018-02-04T22:30:33.708Z,85.50
2018-02-04T22:33:00.081Z,85.70
2018-02-04T22:35:26.462Z,85.60
2018-02-04T22:37:53.599Z,85.30
2018-02-04T22:40:20.747Z,85.40
2018-02-04T22:42:47.869Z,85.60
2018-02-04T22:45:14.251Z,85.60
2018-02-04T22:47:40.642Z,85.50
2018-02-04T22:50:07.037Z,85.80
2018-02-04T22:52:33.435Z,86.70
2018-02-04T22:55:00.581Z,86.10
2018-02-04T22:57:27.782Z,86.40
2018-02-04T22:59:54.245Z,86.30
2018-02-04T23:02:20.615Z,86.60
2018-02-04T23:04:47.739Z,86.00
2018-02-04T23:07:14.906Z,86.80
2018-02-04T23:09:41.325Z,86.20
2018-02-04T23:12:08.508Z,84.90
2018-02-04T23:14:34.870Z,85.00
2018-02-04T23:17:01.259Z,85.60
2018-02-04T23:19:28.386Z,86.60
2018-02-04T23:21:55.558Z,87.40
2018-02-04T23:24:22.702Z,86.50
2018-02-04T23:26:49.821Z,86.70
2018-02-04T23:29:16.198Z,86.80
2018-02-04T23:31:42.582Z,86.10
2018-02-04T23:34:08.955Z,84.80
2018-02-04T23:36:35.327Z,84.50
2018-02-04T23:39:01.695Z,84.60
2018-02-04T23:41:28.075Z,85.00
2018-02-04T23:43:54.452Z,85.20
2018-02-04T23:46:21.598Z,83.90
2018-02-04T23:48:47.975Z,83.90
2018-02-04T23:51:14.365Z,85.00
2018-02-04T23:53:40.740Z,84.70
2018-02-04T23:56:07.099Z,84.60
2018-02-04T23:58:33.578Z,84.00
